sensor_id;sensor_type;location;lat;lon;timestamp;pressure;altitude;pressure_sealevel;temperature;humidity
31092;BME280;67728;53.122;12.776;2024-01-27T00:01:24;101523.78;;;4.74;92.82
31092;BME280;67728;53.122;12.776;2024-01-27T00:02:55;101534.91;;;4.74;93.07
31092;BME280;67728;53.122;12.776;2024-01-27T00:04:27;101535.72;;;4.72;93.49
31092;BME280;67728;53.122;12.776;2024-01-27T00:05:57;101533.28;;;4.78;92.35
31092;BME280;67728;53.122;12.776;2024-01-27T00:07:29;101534.91;;;4.73;93.78
31092;BME280;67728;53.122;12.776;2024-01-27T00:08:59;101537.41;;;4.71;93.47
31092;BME280;67728;53.122;12.776;2024-01-27T00:10:31;101537.47;;;4.73;93.58
31092;BME280;67728;53.122;12.776;2024-01-27T00:12:02;101544.38;;;4.75;93.26
31092;BME280;67728;53.122;12.776;2024-01-27T00:13:33;101537.47;;;4.73;93.53
31092;BME280;67728;53.122;12.776;2024-01-27T00:15:07;101540.06;;;4.76;92.74
31092;BME280;67728;53.122;12.776;2024-01-27T00:16:40;101545.94;;;4.69;93.81
31092;BME280;67728;53.122;12.776;2024-01-27T00:18:12;101546.66;;;4.63;94.86
31092;BME280;67728;53.122;12.776;2024-01-27T00:19:42;101544.06;;;4.62;95.13
31092;BME280;67728;53.122;12.776;2024-01-27T00:21:14;101550.84;;;4.60;95.79
31092;BME280;67728;53.122;12.776;2024-01-27T00:22:44;101549.28;;;4.65;94.65
31092;BME280;67728;53.122;12.776;2024-01-27T00:24:16;101541.63;;;4.68;94.07
31092;BME280;67728;53.122;12.776;2024-01-27T00:25:47;101551.00;;;4.66;94.69
31092;BME280;67728;53.122;12.776;2024-01-27T00:27:18;101555.19;;;4.62;95.06
31092;BME280;67728;53.122;12.776;2024-01-27T00:28:49;101561.13;;;4.60;95.34
31092;BME280;67728;53.122;12.776;2024-01-27T00:30:21;101552.53;;;4.58;96.04
31092;BME280;67728;53.122;12.776;2024-01-27T00:31:54;101564.63;;;4.62;95.35
31092;BME280;67728;53.122;12.776;2024-01-27T00:33:25;101570.66;;;4.64;94.86
31092;BME280;67728;53.122;12.776;2024-01-27T00:34:56;101569.06;;;4.70;94.55
31092;BME280;67728;53.122;12.776;2024-01-27T00:36:27;101572.53;;;4.71;94.86
31092;BME280;67728;53.122;12.776;2024-01-27T00:37:59;101559.50;;;4.62;95.72
31092;BME280;67728;53.122;12.776;2024-01-27T00:39:31;101571.38;;;4.57;96.28
31092;BME280;67728;53.122;12.776;2024-01-27T00:41:03;101567.19;;;4.62;95.69
31092;BME280;67728;53.122;12.776;2024-01-27T00:42:33;101564.56;;;4.59;95.78
31092;BME280;67728;53.122;12.776;2024-01-27T00:44:05;101556.78;;;4.57;95.97
31092;BME280;67728;53.122;12.776;2024-01-27T00:45:36;101554.13;;;4.53;96.59
31092;BME280;67728;53.122;12.776;2024-01-27T00:47:09;101557.53;;;4.52;96.42
31092;BME280;67728;53.122;12.776;2024-01-27T00:48:39;101557.72;;;4.59;95.32
31092;BME280;67728;53.122;12.776;2024-01-27T00:50:11;101561.88;;;4.54;96.50
31092;BME280;67728;53.122;12.776;2024-01-27T00:51:41;101559.13;;;4.47;97.41
31092;BME280;67728;53.122;12.776;2024-01-27T00:53:13;101560.91;;;4.49;97.01
31092;BME280;67728;53.122;12.776;2024-01-27T00:54:45;101574.63;;;4.50;96.85
31092;BME280;67728;53.122;12.776;2024-01-27T00:56:15;101567.88;;;4.55;96.20
31092;BME280;67728;53.122;12.776;2024-01-27T00:57:47;101572.28;;;4.60;95.72
31092;BME280;67728;53.122;12.776;2024-01-27T00:59:18;101575.72;;;4.59;95.84
31092;BME280;67728;53.122;12.776;2024-01-27T01:00:49;101575.72;;;4.59;95.71
31092;BME280;67728;53.122;12.776;2024-01-27T01:02:21;101578.44;;;4.67;95.15
31092;BME280;67728;53.122;12.776;2024-01-27T01:03:53;101574.97;;;4.65;95.35
31092;BME280;67728;53.122;12.776;2024-01-27T01:05:23;101572.28;;;4.60;96.59
31092;BME280;67728;53.122;12.776;2024-01-27T01:06:55;101570.59;;;4.62;95.96
31092;BME280;67728;53.122;12.776;2024-01-27T01:08:26;101577.34;;;4.57;96.58
31092;BME280;67728;53.122;12.776;2024-01-27T01:09:57;101583.22;;;4.52;97.26
31092;BME280;67728;53.122;12.776;2024-01-27T01:11:28;101571.38;;;4.57;96.67
31092;BME280;67728;53.122;12.776;2024-01-27T01:13:00;101574.09;;;4.64;96.19
31092;BME280;67728;53.122;12.776;2024-01-27T01:14:30;101573.09;;;4.58;97.23
31092;BME280;67728;53.122;12.776;2024-01-27T01:16:02;101572.28;;;4.60;97.13
31092;BME280;67728;53.122;12.776;2024-01-27T01:17:35;101580.13;;;4.65;96.57
31092;BME280;67728;53.122;12.776;2024-01-27T01:19:06;101588.59;;;4.62;97.41
31092;BME280;67728;53.122;12.776;2024-01-27T01:20:38;101577.56;;;4.66;96.96
31092;BME280;67728;53.122;12.776;2024-01-27T01:22:09;101577.50;;;4.63;97.37
31092;BME280;67728;53.122;12.776;2024-01-27T01:23:40;101584.41;;;4.66;97.09
31092;BME280;67728;53.122;12.776;2024-01-27T01:25:11;101595.66;;;4.71;96.94
31092;BME280;67728;53.122;12.776;2024-01-27T01:26:43;101592.16;;;4.67;97.93
31092;BME280;67728;53.122;12.776;2024-01-27T01:28:13;101588.66;;;4.65;97.73
31092;BME280;67728;53.122;12.776;2024-01-27T01:29:45;101593.81;;;4.65;98.25
31092;BME280;67728;53.122;12.776;2024-01-27T01:31:15;101587.88;;;4.68;97.32
31092;BME280;67728;53.122;12.776;2024-01-27T01:32:48;101586.25;;;4.71;96.82
31092;BME280;67728;53.122;12.776;2024-01-27T01:34:20;101588.72;;;4.67;98.18
31092;BME280;67728;53.122;12.776;2024-01-27T01:35:52;101595.47;;;4.62;98.39
31092;BME280;67728;53.122;12.776;2024-01-27T01:37:23;101599.72;;;4.61;98.22
31092;BME280;67728;53.122;12.776;2024-01-27T01:38:55;101600.59;;;4.62;97.97
31092;BME280;67728;53.122;12.776;2024-01-27T01:40:25;101601.41;;;4.61;97.92
31092;BME280;67728;53.122;12.776;2024-01-27T01:41:57;101608.19;;;4.57;98.75
31092;BME280;67728;53.122;12.776;2024-01-27T01:43:28;101607.34;;;4.57;98.93
31092;BME280;67728;53.122;12.776;2024-01-27T01:44:59;101600.44;;;4.56;99.49
31092;BME280;67728;53.122;12.776;2024-01-27T01:46:30;101596.13;;;4.53;99.34
31092;BME280;67728;53.122;12.776;2024-01-27T01:48:04;101614.91;;;4.52;99.23
31092;BME280;67728;53.122;12.776;2024-01-27T01:49:36;101610.66;;;4.54;98.95
31092;BME280;67728;53.122;12.776;2024-01-27T01:51:08;101600.44;;;4.56;98.24
31092;BME280;67728;53.122;12.776;2024-01-27T01:52:40;101615.81;;;4.54;98.60
31092;BME280;67728;53.122;12.776;2024-01-27T01:54:12;101601.34;;;4.58;97.82
31092;BME280;67728;53.122;12.776;2024-01-27T01:55:43;101614.03;;;4.52;98.70
31092;BME280;67728;53.122;12.776;2024-01-27T01:57:14;101615.72;;;4.50;98.97
31092;BME280;67728;53.122;12.776;2024-01-27T01:58:45;101611.44;;;4.50;98.49
31092;BME280;67728;53.122;12.776;2024-01-27T02:00:17;101613.91;;;4.46;99.27
31092;BME280;67728;53.122;12.776;2024-01-27T02:01:47;101610.41;;;4.42;99.07
31092;BME280;67728;53.122;12.776;2024-01-27T02:03:20;101625.81;;;4.42;99.03
31092;BME280;67728;53.122;12.776;2024-01-27T02:04:51;101619.88;;;4.45;98.60
31092;BME280;67728;53.122;12.776;2024-01-27T02:06:23;101623.25;;;4.42;99.24
31092;BME280;67728;53.122;12.776;2024-01-27T02:07:54;101624.19;;;4.46;98.24
31092;BME280;67728;53.122;12.776;2024-01-27T02:09:29;101627.50;;;4.42;99.31
31092;BME280;67728;53.122;12.776;2024-01-27T02:11:01;101640.31;;;4.40;99.24
31092;BME280;67728;53.122;12.776;2024-01-27T02:12:33;101635.25;;;4.43;99.27
31092;BME280;67728;53.122;12.776;2024-01-27T02:14:04;101632.63;;;4.40;99.36
31092;BME280;67728;53.122;12.776;2024-01-27T02:15:36;101637.06;;;4.47;98.57
31092;BME280;67728;53.122;12.776;2024-01-27T02:17:06;101643.00;;;4.45;99.12
31092;BME280;67728;53.122;12.776;2024-01-27T02:18:39;101638.59;;;4.41;99.44
31092;BME280;67728;53.122;12.776;2024-01-27T02:20:10;101632.50;;;4.36;99.34
31092;BME280;67728;53.122;12.776;2024-01-27T02:21:42;101641.06;;;4.36;99.50
31092;BME280;67728;53.122;12.776;2024-01-27T02:23:12;101639.28;;;4.32;100.00
31092;BME280;67728;53.122;12.776;2024-01-27T02:24:45;101644.41;;;4.32;100.00
31092;BME280;67728;53.122;12.776;2024-01-27T02:26:16;101652.91;;;4.30;100.00
31092;BME280;67728;53.122;12.776;2024-01-27T02:27:48;101645.19;;;4.30;100.00
31092;BME280;67728;53.122;12.776;2024-01-27T02:29:19;101643.56;;;4.33;100.00
31092;BME280;67728;53.122;12.776;2024-01-27T02:30:50;101642.81;;;4.37;99.57
31092;BME280;67728;53.122;12.776;2024-01-27T02:32:21;101644.44;;;4.34;100.00
31092;BME280;67728;53.122;12.776;2024-01-27T02:33:53;101641.97;;;4.38;99.46
31092;BME280;67728;53.122;12.776;2024-01-27T02:35:25;101646.13;;;4.33;100.00
31092;BME280;67728;53.122;12.776;2024-01-27T02:36:55;101654.69;;;4.32;100.00
31092;BME280;67728;53.122;12.776;2024-01-27T02:38:27;101648.69;;;4.33;100.00
31092;BME280;67728;53.122;12.776;2024-01-27T02:40:00;101641.75;;;4.29;100.00
31092;BME280;67728;53.122;12.776;2024-01-27T02:41:30;101643.44;;;4.27;100.00
31092;BME280;67728;53.122;12.776;2024-01-27T02:43:05;101650.13;;;4.22;100.00
31092;BME280;67728;53.122;12.776;2024-01-27T02:44:36;101658.69;;;4.21;100.00
31092;BME280;67728;53.122;12.776;2024-01-27T02:46:10;101640.56;;;4.16;100.00
31092;BME280;67728;53.122;12.776;2024-01-27T02:47:41;101647.38;;;4.14;100.00
31092;BME280;67728;53.122;12.776;2024-01-27T02:49:13;101651.44;;;4.06;100.00
31092;BME280;67728;53.122;12.776;2024-01-27T02:50:44;101658.25;;;4.04;100.00
31092;BME280;67728;53.122;12.776;2024-01-27T02:52:15;101658.41;;;4.10;100.00
31092;BME280;67728;53.122;12.776;2024-01-27T02:53:46;101662.84;;;4.17;100.00
31092;BME280;67728;53.122;12.776;2024-01-27T02:55:19;101654.88;;;4.07;100.00
31092;BME280;67728;53.122;12.776;2024-01-27T02:56:50;101666.66;;;4.00;100.00
31092;BME280;67728;53.122;12.776;2024-01-27T02:58:21;101669.19;;;3.97;100.00
31092;BME280;67728;53.122;12.776;2024-01-27T02:59:52;101667.34;;;3.93;100.00
31092;BME280;67728;53.122;12.776;2024-01-27T03:01:24;101656.00;;;3.85;100.00
31092;BME280;67728;53.122;12.776;2024-01-27T03:02:55;101664.53;;;3.84;100.00
31092;BME280;67728;53.122;12.776;2024-01-27T03:04:28;101657.84;;;3.89;100.00
31092;BME280;67728;53.122;12.776;2024-01-27T03:05:59;101669.53;;;3.80;100.00
31092;BME280;67728;53.122;12.776;2024-01-27T03:07:30;101674.84;;;3.86;100.00
31092;BME280;67728;53.122;12.776;2024-01-27T03:09:01;101677.28;;;3.81;100.00
31092;BME280;67728;53.122;12.776;2024-01-27T03:10:35;101672.97;;;3.80;100.00
31092;BME280;67728;53.122;12.776;2024-01-27T03:12:06;101676.44;;;3.81;100.00
31092;BME280;67728;53.122;12.776;2024-01-27T03:13:38;101685.03;;;3.83;100.00
31092;BME280;67728;53.122;12.776;2024-01-27T03:15:15;101688.31;;;3.79;100.00
31092;BME280;67728;53.122;12.776;2024-01-27T03:16:46;101691.56;;;3.72;100.00
31092;BME280;67728;53.122;12.776;2024-01-27T03:18:17;101683.78;;;3.69;100.00
31092;BME280;67728;53.122;12.776;2024-01-27T03:19:49;101687.31;;;3.72;100.00
31092;BME280;67728;53.122;12.776;2024-01-27T03:21:20;101700.13;;;3.72;100.00
31092;BME280;67728;53.122;12.776;2024-01-27T03:22:51;101701.78;;;3.70;100.00
31092;BME280;67728;53.122;12.776;2024-01-27T03:24:22;101716.34;;;3.71;100.00
31092;BME280;67728;53.122;12.776;2024-01-27T03:25:55;101704.50;;;3.76;100.00
31092;BME280;67728;53.122;12.776;2024-01-27T03:27:25;101702.78;;;3.75;100.00
31092;BME280;67728;53.122;12.776;2024-01-27T03:28:57;101706.38;;;3.82;100.00
31092;BME280;67728;53.122;12.776;2024-01-27T03:30:28;101710.59;;;3.80;100.00
31092;BME280;67728;53.122;12.776;2024-01-27T03:31:59;101711.47;;;3.80;100.00
31092;BME280;67728;53.122;12.776;2024-01-27T03:33:30;101712.28;;;3.79;100.00
31092;BME280;67728;53.122;12.776;2024-01-27T03:35:02;101714.84;;;3.79;100.00
31092;BME280;67728;53.122;12.776;2024-01-27T03:36:33;101719.16;;;3.80;100.00
31092;BME280;67728;53.122;12.776;2024-01-27T03:38:05;101724.41;;;3.85;100.00
31092;BME280;67728;53.122;12.776;2024-01-27T03:39:36;101721.91;;;3.86;100.00
31092;BME280;67728;53.122;12.776;2024-01-27T03:41:09;101722.84;;;3.90;100.00
31092;BME280;67728;53.122;12.776;2024-01-27T03:42:39;101734.88;;;3.91;100.00
31092;BME280;67728;53.122;12.776;2024-01-27T03:44:11;101737.44;;;3.91;100.00
31092;BME280;67728;53.122;12.776;2024-01-27T03:45:42;101729.81;;;3.94;100.00
31092;BME280;67728;53.122;12.776;2024-01-27T03:47:14;101729.16;;;4.01;100.00
31092;BME280;67728;53.122;12.776;2024-01-27T03:48:45;101731.88;;;4.07;100.00
31092;BME280;67728;53.122;12.776;2024-01-27T03:50:16;101750.59;;;4.03;100.00
31092;BME280;67728;53.122;12.776;2024-01-27T03:51:48;101748.16;;;4.07;100.00
31092;BME280;67728;53.122;12.776;2024-01-27T03:53:18;101736.94;;;4.04;100.00
31092;BME280;67728;53.122;12.776;2024-01-27T03:54:50;101743.66;;;4.00;100.00
31092;BME280;67728;53.122;12.776;2024-01-27T03:56:22;101739.41;;;4.01;100.00
31092;BME280;67728;53.122;12.776;2024-01-27T03:57:54;101738.53;;;4.00;100.00
31092;BME280;67728;53.122;12.776;2024-01-27T03:59:24;101728.25;;;3.99;100.00
31092;BME280;67728;53.122;12.776;2024-01-27T04:00:56;101742.06;;;4.04;100.00
31092;BME280;67728;53.122;12.776;2024-01-27T04:02:27;101743.72;;;4.02;100.00
31092;BME280;67728;53.122;12.776;2024-01-27T04:03:58;101750.66;;;4.06;100.00
31092;BME280;67728;53.122;12.776;2024-01-27T04:05:30;101740.38;;;4.04;100.00
31092;BME280;67728;53.122;12.776;2024-01-27T04:07:02;101745.44;;;4.03;100.00
31092;BME280;67728;53.122;12.776;2024-01-27T04:08:33;101747.28;;;4.07;100.00
31092;BME280;67728;53.122;12.776;2024-01-27T04:10:05;101756.78;;;4.09;100.00
31092;BME280;67728;53.122;12.776;2024-01-27T04:11:37;101742.19;;;4.08;100.00
31092;BME280;67728;53.122;12.776;2024-01-27T04:13:10;101746.50;;;4.09;100.00
31092;BME280;67728;53.122;12.776;2024-01-27T04:14:40;101751.63;;;4.09;100.00
31092;BME280;67728;53.122;12.776;2024-01-27T04:16:12;101751.63;;;4.09;100.00
31092;BME280;67728;53.122;12.776;2024-01-27T04:17:43;101750.06;;;4.14;100.00
31092;BME280;67728;53.122;12.776;2024-01-27T04:19:14;101750.91;;;4.13;100.00
31092;BME280;67728;53.122;12.776;2024-01-27T04:20:45;101756.06;;;4.15;100.00
31092;BME280;67728;53.122;12.776;2024-01-27T04:22:16;101754.47;;;4.18;100.00
31092;BME280;67728;53.122;12.776;2024-01-27T04:23:47;101746.75;;;4.18;100.00
31092;BME280;67728;53.122;12.776;2024-01-27T04:25:19;101757.94;;;4.20;100.00
31092;BME280;67728;53.122;12.776;2024-01-27T04:26:51;101762.19;;;4.20;100.00
31092;BME280;67728;53.122;12.776;2024-01-27T04:28:22;101756.25;;;4.21;100.00
31092;BME280;67728;53.122;12.776;2024-01-27T04:29:53;101758.84;;;4.22;100.00
31092;BME280;67728;53.122;12.776;2024-01-27T04:31:25;101768.22;;;4.22;100.00
31092;BME280;67728;53.122;12.776;2024-01-27T04:32:56;101776.97;;;4.29;100.00
31092;BME280;67728;53.122;12.776;2024-01-27T04:34:27;101769.25;;;4.27;100.00
31092;BME280;67728;53.122;12.776;2024-01-27T04:35:58;101771.69;;;4.22;100.00
31092;BME280;67728;53.122;12.776;2024-01-27T04:37:29;101771.69;;;4.22;100.00
31092;BME280;67728;53.122;12.776;2024-01-27T04:39:01;101770.78;;;4.22;100.00
31092;BME280;67728;53.122;12.776;2024-01-27T04:40:33;101784.47;;;4.21;100.00
31092;BME280;67728;53.122;12.776;2024-01-27T04:42:05;101770.88;;;4.25;100.00
31092;BME280;67728;53.122;12.776;2024-01-27T04:43:37;101777.66;;;4.21;100.00
31092;BME280;67728;53.122;12.776;2024-01-27T04:45:08;101776.81;;;4.22;100.00
31092;BME280;67728;53.122;12.776;2024-01-27T04:46:40;101783.72;;;4.25;100.00
31092;BME280;67728;53.122;12.776;2024-01-27T04:48:11;101786.22;;;4.22;100.00
31092;BME280;67728;53.122;12.776;2024-01-27T04:49:42;101785.38;;;4.23;100.00
31092;BME280;67728;53.122;12.776;2024-01-27T04:51:13;101796.53;;;4.23;100.00
31092;BME280;67728;53.122;12.776;2024-01-27T04:52:45;101791.50;;;4.27;100.00
31092;BME280;67728;53.122;12.776;2024-01-27T04:54:16;101793.22;;;4.28;100.00
31092;BME280;67728;53.122;12.776;2024-01-27T04:55:47;101794.97;;;4.29;100.00
31092;BME280;67728;53.122;12.776;2024-01-27T04:57:20;101799.41;;;4.36;100.00
31092;BME280;67728;53.122;12.776;2024-01-27T04:58:51;101800.28;;;4.36;100.00
31092;BME280;67728;53.122;12.776;2024-01-27T05:00:22;101798.50;;;4.32;100.00
31092;BME280;67728;53.122;12.776;2024-01-27T05:01:53;101807.03;;;4.33;100.00
31092;BME280;67728;53.122;12.776;2024-01-27T05:03:24;101805.41;;;4.35;100.00
31092;BME280;67728;53.122;12.776;2024-01-27T05:04:55;101802.06;;;4.39;100.00
31092;BME280;67728;53.122;12.776;2024-01-27T05:06:27;101803.75;;;4.37;100.00
31092;BME280;67728;53.122;12.776;2024-01-27T05:07:58;101803.66;;;4.34;100.00
31092;BME280;67728;53.122;12.776;2024-01-27T05:09:29;101808.75;;;4.32;100.00
31092;BME280;67728;53.122;12.776;2024-01-27T05:11:00;101828.47;;;4.33;100.00
31092;BME280;67728;53.122;12.776;2024-01-27T05:12:32;101813.13;;;4.36;100.00
31092;BME280;67728;53.122;12.776;2024-01-27T05:14:04;101820.81;;;4.35;100.00
31092;BME280;67728;53.122;12.776;2024-01-27T05:15:35;101813.13;;;4.36;100.00
31092;BME280;67728;53.122;12.776;2024-01-27T05:17:06;101828.53;;;4.36;100.00
31092;BME280;67728;53.122;12.776;2024-01-27T05:18:37;101826.09;;;4.41;100.00
31092;BME280;67728;53.122;12.776;2024-01-27T05:20:09;101822.63;;;4.39;100.00
31092;BME280;67728;53.122;12.776;2024-01-27T05:21:40;101840.56;;;4.37;100.00
31092;BME280;67728;53.122;12.776;2024-01-27T05:23:11;101842.44;;;4.43;100.00
31092;BME280;67728;53.122;12.776;2024-01-27T05:24:43;101838.94;;;4.41;100.00
31092;BME280;67728;53.122;12.776;2024-01-27T05:26:14;101846.91;;;4.50;100.00
31092;BME280;67728;53.122;12.776;2024-01-27T05:27:47;101855.38;;;4.46;100.00
31092;BME280;67728;53.122;12.776;2024-01-27T05:29:17;101840.78;;;4.45;100.00
31092;BME280;67728;53.122;12.776;2024-01-27T05:30:49;101841.66;;;4.45;100.00
31092;BME280;67728;53.122;12.776;2024-01-27T05:32:20;101849.28;;;4.42;100.00
31092;BME280;67728;53.122;12.776;2024-01-27T05:33:51;101845.88;;;4.43;100.00
31092;BME280;67728;53.122;12.776;2024-01-27T05:35:22;101851.03;;;4.43;100.00
31092;BME280;67728;53.122;12.776;2024-01-27T05:36:54;101854.31;;;4.39;100.00
31092;BME280;67728;53.122;12.776;2024-01-27T05:38:25;101855.09;;;4.37;100.00
31092;BME280;67728;53.122;12.776;2024-01-27T05:39:56;101850.88;;;4.39;100.00
31092;BME280;67728;53.122;12.776;2024-01-27T05:41:28;101853.63;;;4.45;100.00
31092;BME280;67728;53.122;12.776;2024-01-27T05:43:00;101852.63;;;4.40;100.00
31092;BME280;67728;53.122;12.776;2024-01-27T05:44:32;101857.00;;;4.44;100.00
31092;BME280;67728;53.122;12.776;2024-01-27T05:46:03;101861.44;;;4.49;100.00
31092;BME280;67728;53.122;12.776;2024-01-27T05:47:35;101853.72;;;4.48;100.00
31092;BME280;67728;53.122;12.776;2024-01-27T05:49:05;101849.44;;;4.48;100.00
31092;BME280;67728;53.122;12.776;2024-01-27T05:50:37;101857.00;;;4.44;100.00
31092;BME280;67728;53.122;12.776;2024-01-27T05:52:08;101860.50;;;4.46;100.00
31092;BME280;67728;53.122;12.776;2024-01-27T05:53:39;101869.03;;;4.45;100.00
31092;BME280;67728;53.122;12.776;2024-01-27T05:55:10;101863.91;;;4.46;100.00
31092;BME280;67728;53.122;12.776;2024-01-27T05:56:43;101864.78;;;4.47;100.00
31092;BME280;67728;53.122;12.776;2024-01-27T05:58:15;101870.84;;;4.49;100.00
31092;BME280;67728;53.122;12.776;2024-01-27T05:59:47;101864.06;;;4.51;100.00
31092;BME280;67728;53.122;12.776;2024-01-27T06:01:17;101864.97;;;4.53;100.00
31092;BME280;67728;53.122;12.776;2024-01-27T06:02:49;101873.50;;;4.52;100.00
31092;BME280;67728;53.122;12.776;2024-01-27T06:04:20;101873.50;;;4.52;100.00
31092;BME280;67728;53.122;12.776;2024-01-27T06:05:51;101880.38;;;4.51;100.00
31092;BME280;67728;53.122;12.776;2024-01-27T06:07:23;101879.50;;;4.52;100.00
31092;BME280;67728;53.122;12.776;2024-01-27T06:08:53;101882.94;;;4.51;100.00
31092;BME280;67728;53.122;12.776;2024-01-27T06:10:25;101881.19;;;4.52;100.00
31092;BME280;67728;53.122;12.776;2024-01-27T06:11:58;101878.63;;;4.52;100.00
31092;BME280;67728;53.122;12.776;2024-01-27T06:13:31;101880.38;;;4.51;100.00
31092;BME280;67728;53.122;12.776;2024-01-27T06:15:04;101883.78;;;4.52;100.00
31092;BME280;67728;53.122;12.776;2024-01-27T06:16:36;101879.56;;;4.54;100.00
31092;BME280;67728;53.122;12.776;2024-01-27T06:18:06;101884.72;;;4.54;100.00
31092;BME280;67728;53.122;12.776;2024-01-27T06:19:38;101884.63;;;4.51;100.00
31092;BME280;67728;53.122;12.776;2024-01-27T06:21:10;101888.78;;;4.46;100.00
31092;BME280;67728;53.122;12.776;2024-01-27T06:22:42;101890.47;;;4.45;100.00
31092;BME280;67728;53.122;12.776;2024-01-27T06:24:12;101896.47;;;4.46;100.00
31092;BME280;67728;53.122;12.776;2024-01-27T06:25:44;101891.38;;;4.47;100.00
31092;BME280;67728;53.122;12.776;2024-01-27T06:27:14;101893.91;;;4.46;100.00
31092;BME280;67728;53.122;12.776;2024-01-27T06:28:47;101908.47;;;4.47;100.00
31092;BME280;67728;53.122;12.776;2024-01-27T06:30:18;101900.06;;;4.52;100.00
31092;BME280;67728;53.122;12.776;2024-01-27T06:31:50;101903.50;;;4.53;100.00
31092;BME280;67728;53.122;12.776;2024-01-27T06:33:20;101903.38;;;4.48;100.00
31092;BME280;67728;53.122;12.776;2024-01-27T06:34:52;101903.41;;;4.50;100.00
31092;BME280;67728;53.122;12.776;2024-01-27T06:36:23;101907.69;;;4.49;100.00
31092;BME280;67728;53.122;12.776;2024-01-27T06:37:57;101905.91;;;4.47;100.00
31092;BME280;67728;53.122;12.776;2024-01-27T06:39:28;101907.75;;;4.51;100.00
31092;BME280;67728;53.122;12.776;2024-01-27T06:41:00;101907.66;;;4.48;100.00
31092;BME280;67728;53.122;12.776;2024-01-27T06:42:30;101912.81;;;4.49;100.00
31092;BME280;67728;53.122;12.776;2024-01-27T06:44:03;101913.59;;;4.47;100.00
31092;BME280;67728;53.122;12.776;2024-01-27T06:45:34;101913.56;;;4.45;100.00
31092;BME280;67728;53.122;12.776;2024-01-27T06:47:06;101918.72;;;4.45;100.00
31092;BME280;67728;53.122;12.776;2024-01-27T06:48:36;101920.59;;;4.51;100.00
31092;BME280;67728;53.122;12.776;2024-01-27T06:50:09;101923.88;;;4.47;100.00
31092;BME280;67728;53.122;12.776;2024-01-27T06:51:39;101939.25;;;4.45;100.00
31092;BME280;67728;53.122;12.776;2024-01-27T06:53:11;101935.00;;;4.46;100.00
31092;BME280;67728;53.122;12.776;2024-01-27T06:54:41;101935.00;;;4.46;100.00
31092;BME280;67728;53.122;12.776;2024-01-27T06:56:14;101927.28;;;4.46;100.00
31092;BME280;67728;53.122;12.776;2024-01-27T06:57:45;101933.22;;;4.43;100.00
31092;BME280;67728;53.122;12.776;2024-01-27T06:59:18;101947.75;;;4.43;100.00
31092;BME280;67728;53.122;12.776;2024-01-27T07:00:49;101946.00;;;4.42;100.00
31092;BME280;67728;53.122;12.776;2024-01-27T07:02:22;101946.81;;;4.41;100.00
31092;BME280;67728;53.122;12.776;2024-01-27T07:03:53;101951.94;;;4.41;100.00
31092;BME280;67728;53.122;12.776;2024-01-27T07:05:25;101961.69;;;4.51;100.00
31092;BME280;67728;53.122;12.776;2024-01-27T07:06:56;101959.94;;;4.50;100.00
31092;BME280;67728;53.122;12.776;2024-01-27T07:08:27;101961.53;;;4.46;100.00
31092;BME280;67728;53.122;12.776;2024-01-27T07:09:59;101970.13;;;4.47;100.00
31092;BME280;67728;53.122;12.776;2024-01-27T07:11:31;101970.22;;;4.50;100.00
31092;BME280;67728;53.122;12.776;2024-01-27T07:13:02;101970.22;;;4.50;100.00
31092;BME280;67728;53.122;12.776;2024-01-27T07:14:35;101971.97;;;4.51;100.00
31092;BME280;67728;53.122;12.776;2024-01-27T07:16:06;101974.63;;;4.54;100.00
31092;BME280;67728;53.122;12.776;2024-01-27T07:17:37;101978.03;;;4.54;100.00
31092;BME280;67728;53.122;12.776;2024-01-27T07:19:08;101973.84;;;4.56;100.00
31092;BME280;67728;53.122;12.776;2024-01-27T07:20:41;101981.72;;;4.62;100.00
31092;BME280;67728;53.122;12.776;2024-01-27T07:22:12;101978.22;;;4.60;100.00
31092;BME280;67728;53.122;12.776;2024-01-27T07:23:44;101982.59;;;4.63;100.00
31092;BME280;67728;53.122;12.776;2024-01-27T07:25:15;101986.00;;;4.62;100.00
31092;BME280;67728;53.122;12.776;2024-01-27T07:26:46;101992.78;;;4.60;100.00
31092;BME280;67728;53.122;12.776;2024-01-27T07:28:17;101985.22;;;4.64;100.00
31092;BME280;67728;53.122;12.776;2024-01-27T07:29:51;101995.50;;;4.64;100.00
31092;BME280;67728;53.122;12.776;2024-01-27T07:31:21;101996.44;;;4.68;100.00
31092;BME280;67728;53.122;12.776;2024-01-27T07:32:54;101999.06;;;4.69;100.00
31092;BME280;67728;53.122;12.776;2024-01-27T07:34:25;102014.66;;;4.75;100.00
31092;BME280;67728;53.122;12.776;2024-01-27T07:35:56;102012.16;;;4.78;100.00
31092;BME280;67728;53.122;12.776;2024-01-27T07:37:27;102011.31;;;4.78;100.00
31092;BME280;67728;53.122;12.776;2024-01-27T07:38:59;102012.16;;;4.78;100.00
31092;BME280;67728;53.122;12.776;2024-01-27T07:40:29;102017.34;;;4.80;100.00
31092;BME280;67728;53.122;12.776;2024-01-27T07:42:01;102018.22;;;4.80;100.00
31092;BME280;67728;53.122;12.776;2024-01-27T07:43:31;102017.53;;;4.86;100.00
31092;BME280;67728;53.122;12.776;2024-01-27T07:45:05;102017.63;;;4.89;100.00
31092;BME280;67728;53.122;12.776;2024-01-27T07:46:36;102026.16;;;4.88;100.00
31092;BME280;67728;53.122;12.776;2024-01-27T07:48:08;102023.69;;;4.91;100.00
31092;BME280;67728;53.122;12.776;2024-01-27T07:49:39;102022.00;;;4.93;100.00
31092;BME280;67728;53.122;12.776;2024-01-27T07:51:10;102022.84;;;4.92;100.00
31092;BME280;67728;53.122;12.776;2024-01-27T07:52:42;102028.81;;;4.91;100.00
31092;BME280;67728;53.122;12.776;2024-01-27T07:54:13;102032.38;;;4.96;100.00